Time;durP1;ratioP1;P1;durP2;ratioP2;P2;SDS_P1;SDS_P2;PMS_P1;PMS_P2;Temp;Humidity;BMP_temperature;BMP_pressure;BME280_temperature;BME280_humidity;BME280_pressure;Samples;Min_cycle;Max_cycle;Signal;HPM_P1;HPM_P2
2023/08/14 00:01:38;;;;;;;6.47;3.95;;;18.70;99.90;;;;;;5001502;28;20703;-79
2023/08/14 00:04:13;;;;;;;6.63;4.50;;;18.80;99.90;;;;;;4986153;28;20600;-79
2023/08/14 00:06:41;;;;;;;6.72;4.15;;;18.70;1.00;;;;;;4996247;28;20211;-79
2023/08/14 00:09:08;;;;;;;6.88;4.15;;;18.80;99.90;;;;;;4996584;28;20196;-79
2023/08/14 00:11:36;;;;;;;5.40;4.10;;;18.80;51.20;;;;;;5011810;28;20217;-79
2023/08/14 00:14:04;;;;;;;8.55;4.35;;;19.00;90.20;;;;;;5011788;28;20200;-79
2023/08/14 00:16:31;;;;;;;8.18;4.00;;;18.70;1.00;;;;;;4996276;28;20207;-79
2023/08/14 00:19:00;;;;;;;6.32;3.78;;;18.40;1.00;;;;;;4992016;28;20211;-79
2023/08/14 00:21:28;;;;;;;6.05;4.07;;;18.20;1.00;;;;;;4981838;28;20219;-79
2023/08/14 00:23:55;;;;;;;6.95;3.80;;;18.10;82.90;;;;;;4984168;28;20216;-79
2023/08/14 00:26:23;;;;;;;7.88;4.55;;;18.50;99.90;;;;;;5012266;28;20682;-79
2023/08/14 00:28:50;;;;;;;6.90;4.47;;;18.70;1.00;;;;;;4992844;28;20439;-79
2023/08/14 00:31:18;;;;;;;6.93;4.30;;;18.80;1.00;;;;;;4995297;28;20243;-79
2023/08/14 00:33:46;;;;;;;6.10;4.18;;;18.70;1.00;;;;;;4990907;28;20204;-79
2023/08/14 00:36:15;;;;;;;6.10;4.35;;;18.40;1.00;;;;;;4979543;28;20208;-79
2023/08/14 00:38:42;;;;;;;5.97;3.92;;;18.40;26.00;;;;;;4996579;28;20219;-79
2023/08/14 00:41:10;;;;;;;7.57;3.80;;;18.30;65.50;;;;;;4996387;28;20224;-79
2023/08/14 00:43:37;;;;;;;8.73;4.05;;;18.40;99.90;;;;;;4995361;28;20212;-79
2023/08/14 00:46:06;;;;;;;7.38;4.43;;;18.30;99.90;;;;;;5009969;28;20205;-79
2023/08/14 00:48:34;;;;;;;6.32;4.32;;;18.40;99.90;;;;;;4989111;28;20200;-79
2023/08/14 00:51:02;;;;;;;6.03;3.78;;;18.60;92.20;;;;;;4996634;28;20232;-79
2023/08/14 00:53:32;;;;;;;4.82;3.72;;;18.70;1.00;;;;;;4988433;28;20212;-79
2023/08/14 00:56:02;;;;;;;6.53;4.55;;;18.70;1.00;;;;;;4993567;28;20221;-79
2023/08/14 00:58:33;;;;;;;8.30;4.80;;;18.80;1.00;;;;;;4990010;28;20208;-79
2023/08/14 01:01:01;;;;;;;7.18;4.30;;;18.90;1.00;;;;;;5002612;28;20725;-79
2023/08/14 01:03:29;;;;;;;7.80;3.88;;;18.90;1.00;;;;;;4999237;28;20203;-79
2023/08/14 01:05:57;;;;;;;6.80;4.07;;;18.70;1.00;;;;;;5014326;28;20655;-78
2023/08/14 01:08:25;;;;;;;11.32;4.50;;;18.50;65.30;;;;;;4991698;28;20193;-79
2023/08/14 01:11:00;;;;;;;8.13;4.28;;;18.50;99.90;;;;;;4994741;28;20422;-79
2023/08/14 01:13:48;;;;;;;6.72;4.03;;;18.50;27.90;;;;;;5016056;28;20201;-79
2023/08/14 01:16:20;;;;;;;9.30;4.32;;;18.60;99.90;;;;;;4999941;28;20201;-79
2023/08/14 01:18:48;;;;;;;6.32;3.97;;;18.70;1.00;;;;;;4992542;28;20196;-78
2023/08/14 01:21:34;;;;;;;5.82;4.15;;;18.60;1.00;;;;;;4985722;28;20228;-78
2023/08/14 01:24:11;;;;;;;4.05;3.65;;;18.70;1.00;;;;;;4984361;28;20228;-78
2023/08/14 01:26:40;;;;;;;7.85;3.85;;;18.60;1.00;;;;;;5002783;28;20204;-79
2023/08/14 01:29:08;;;;;;;8.57;4.00;;;18.50;1.00;;;;;;4988925;28;20208;-79
2023/08/14 01:31:36;;;;;;;5.45;3.95;;;18.50;64.60;;;;;;4999560;28;20227;-79
2023/08/14 01:34:04;;;;;;;4.85;3.70;;;18.70;27.20;;;;;;4986513;28;20211;-79
2023/08/14 01:36:39;;;;;;;5.70;3.80;;;18.90;1.00;;;;;;4999995;28;20196;-79
2023/08/14 01:39:09;;;;;;;6.35;3.97;;;18.80;99.90;;;;;;4987109;28;20223;-79
2023/08/14 01:41:48;;;;;;;5.57;3.90;;;18.60;1.00;;;;;;4994721;28;20228;-79
2023/08/14 01:44:21;;;;;;;6.47;4.00;;;18.50;69.40;;;;;;4984231;28;20188;-79
2023/08/14 01:46:51;;;;;;;7.78;4.20;;;18.20;32.60;;;;;;4993220;28;20200;-79
2023/08/14 01:49:20;;;;;;;5.55;3.97;;;18.20;99.90;;;;;;5014145;28;20223;-79
2023/08/14 01:51:50;;;;;;;9.40;4.10;;;18.20;99.90;;;;;;4986456;28;20702;-79
2023/08/14 01:54:18;;;;;;;4.57;3.50;;;18.40;99.90;;;;;;4990876;28;20207;-79
2023/08/14 01:56:46;;;;;;;6.80;3.60;;;18.40;99.90;;;;;;4995550;28;20200;-79
2023/08/14 01:59:14;;;;;;;6.55;3.92;;;18.40;99.90;;;;;;5012237;28;20223;-79
2023/08/14 02:01:41;;;;;;;6.13;3.60;;;18.40;20.40;;;;;;4996183;28;20232;-79
2023/08/14 02:04:09;;;;;;;5.97;3.70;;;18.50;1.00;;;;;;4994844;28;20223;-79
2023/08/14 02:06:37;;;;;;;8.90;4.00;;;18.30;1.00;;;;;;4984279;28;20197;-78
2023/08/14 02:09:04;;;;;;;4.93;3.80;;;18.30;99.90;;;;;;4998496;28;20561;-79
2023/08/14 02:11:32;;;;;;;6.25;4.00;;;18.30;41.10;;;;;;4996223;28;20220;-79
2023/08/14 02:14:01;;;;;;;4.82;3.40;;;18.50;1.00;;;;;;4986030;28;20208;-78
2023/08/14 02:16:28;;;;;;;6.10;3.63;;;18.70;1.00;;;;;;4995602;28;20205;-79
2023/08/14 02:18:56;;;;;;;6.63;3.83;;;18.70;1.00;;;;;;4996009;28;20200;-79
2023/08/14 02:21:23;;;;;;;5.53;3.65;;;18.60;1.00;;;;;;5001131;28;20220;-80
2023/08/14 02:23:51;;;;;;;4.18;3.75;;;18.70;1.00;;;;;;4983518;28;20608;-79
2023/08/14 02:26:18;;;;;;;4.38;3.97;;;18.70;1.00;;;;;;5015557;28;20207;-79
2023/08/14 02:28:46;;;;;;;4.82;3.88;;;18.50;1.00;;;;;;4993599;28;20204;-79
2023/08/14 02:31:15;;;;;;;5.80;3.60;;;18.30;1.00;;;;;;4992176;28;20239;-79
2023/08/14 02:33:42;;;;;;;4.97;3.28;;;18.40;1.00;;;;;;4992823;28;20200;-79
2023/08/14 02:36:10;;;;;;;4.75;3.22;;;18.40;1.00;;;;;;4992030;28;20201;-79
2023/08/14 02:38:37;;;;;;;6.80;3.63;;;18.30;1.00;;;;;;4998343;28;20200;-79
2023/08/14 02:41:06;;;;;;;8.00;3.00;;;18.20;1.00;;;;;;4984099;28;20232;-79
2023/08/14 02:43:34;;;;;;;4.45;3.25;;;18.00;11.40;;;;;;4979364;28;20232;-79
2023/08/14 02:46:01;;;;;;;6.63;3.53;;;18.10;1.00;;;;;;4987484;28;20200;-79
2023/08/14 02:48:30;;;;;;;5.45;3.80;;;18.10;2.60;;;;;;4994874;28;20557;-79
2023/08/14 02:50:57;;;;;;;6.38;3.95;;;18.40;86.40;;;;;;4991132;28;20238;-79
2023/08/14 02:53:25;;;;;;;6.53;3.60;;;18.30;1.00;;;;;;5005740;28;20199;-79
2023/08/14 02:55:53;;;;;;;9.65;3.58;;;18.00;1.00;;;;;;4996161;28;20196;-79
2023/08/14 02:58:20;;;;;;;5.68;3.58;;;18.00;1.00;;;;;;4993691;28;20658;-79
2023/08/14 03:00:48;;;;;;;6.68;4.13;;;17.90;1.00;;;;;;4983550;28;20224;-79
2023/08/14 03:03:16;;;;;;;5.22;3.55;;;18.00;1.00;;;;;;4995458;28;20222;-79
2023/08/14 03:05:45;;;;;;;7.60;3.55;;;18.00;1.00;;;;;;4995971;28;20205;-79
2023/08/14 03:08:12;;;;;;;5.05;3.65;;;18.00;1.00;;;;;;5012123;28;20568;-79
2023/08/14 03:10:40;;;;;;;7.45;4.00;;;18.00;1.00;;;;;;4997668;28;20217;-79
2023/08/14 03:13:08;;;;;;;10.30;4.20;;;18.00;1.00;;;;;;4996616;28;20201;-82
2023/08/14 03:15:36;;;;;;;5.50;3.63;;;18.00;1.00;;;;;;4994036;28;20200;-79
2023/08/14 03:18:04;;;;;;;5.68;4.20;;;17.90;1.00;;;;;;4987389;28;20219;-79
2023/08/14 03:20:31;;;;;;;7.05;4.10;;;17.80;10.30;;;;;;5001776;28;20225;-79
2023/08/14 03:23:00;;;;;;;7.20;3.83;;;17.90;6.90;;;;;;4988694;28;20675;-79
2023/08/14 03:25:28;;;;;;;6.30;4.18;;;18.10;1.00;;;;;;5007913;28;20288;-79
2023/08/14 03:27:55;;;;;;;9.73;6.40;;;18.60;1.00;;;;;;5010532;28;20214;-79
2023/08/14 03:30:23;;;;;;;7.28;4.13;;;18.50;1.00;;;;;;4979688;28;20235;-79
2023/08/14 03:32:50;;;;;;;6.97;3.95;;;18.20;99.90;;;;;;4996865;28;20192;-79
2023/08/14 03:35:18;;;;;;;4.20;3.55;;;18.00;1.00;;;;;;4999191;28;20196;-78
2023/08/14 03:37:46;;;;;;;5.93;4.07;;;18.20;1.00;;;;;;5016794;28;20208;-78
2023/08/14 03:40:15;;;;;;;8.50;4.18;;;18.10;1.00;;;;;;4998704;28;20229;-79
2023/08/14 03:42:43;;;;;;;5.00;3.65;;;18.00;1.00;;;;;;4991985;28;20212;-79
2023/08/14 03:45:11;;;;;;;6.25;4.10;;;18.00;1.00;;;;;;4991424;28;20212;-79
2023/08/14 03:47:38;;;;;;;5.32;4.32;;;17.80;1.00;;;;;;4996228;28;20204;-79
2023/08/14 03:50:07;;;;;;;7.50;3.63;;;17.90;1.00;;;;;;4995271;28;20196;-79
2023/08/14 03:52:35;;;;;;;5.75;4.20;;;17.80;1.00;;;;;;4994376;28;20188;-79
2023/08/14 03:55:02;;;;;;;6.10;3.60;;;17.80;1.00;;;;;;4982680;28;20208;-79
2023/08/14 03:57:32;;;;;;;6.85;4.45;;;17.80;1.00;;;;;;5009684;28;20197;-79
2023/08/14 04:00:00;;;;;;;7.43;4.70;;;17.70;1.00;;;;;;5010236;28;20204;-79
2023/08/14 04:02:28;;;;;;;5.20;3.53;;;17.70;1.00;;;;;;4995574;28;20216;-79
2023/08/14 04:04:55;;;;;;;10.50;4.72;;;17.70;1.00;;;;;;4996654;28;20200;-79
2023/08/14 04:07:23;;;;;;;7.07;4.50;;;17.70;1.00;;;;;;4994278;28;20204;-79
2023/08/14 04:09:51;;;;;;;9.00;5.68;;;17.70;1.00;;;;;;4988732;28;20200;-79
2023/08/14 04:12:19;;;;;;;8.40;4.97;;;17.60;1.00;;;;;;5010423;28;20211;-79
2023/08/14 04:14:50;;;;;;;7.63;4.55;;;17.50;1.00;;;;;;4995340;28;20204;-79
2023/08/14 04:17:18;;;;;;;7.18;5.00;;;17.60;1.00;;;;;;4987804;28;20196;-79
2023/08/14 04:19:45;;;;;;;5.97;4.72;;;17.60;1.00;;;;;;5008584;28;20567;-79
2023/08/14 04:22:13;;;;;;;11.98;5.20;;;17.60;1.00;;;;;;4993566;28;20219;-79
2023/08/14 04:24:40;;;;;;;6.60;4.30;;;17.60;1.00;;;;;;4981220;28;20205;-78
2023/08/14 04:27:08;;;;;;;7.07;5.03;;;17.60;1.00;;;;;;4987523;28;20196;-79
2023/08/14 04:29:35;;;;;;;5.60;4.47;;;17.60;1.00;;;;;;4976481;28;20204;-79
2023/08/14 04:32:05;;;;;;;7.53;4.95;;;17.50;1.00;;;;;;4994196;28;20223;-79
2023/08/14 04:34:34;;;;;;;7.28;5.03;;;17.50;1.00;;;;;;4994713;28;20192;-79
2023/08/14 04:37:01;;;;;;;6.15;4.82;;;17.60;1.00;;;;;;4992878;28;20195;-79
2023/08/14 04:39:29;;;;;;;7.72;5.38;;;17.80;1.00;;;;;;4988576;28;20200;-79
2023/08/14 04:41:56;;;;;;;10.43;5.43;;;17.80;1.00;;;;;;4994718;28;20235;-79
2023/08/14 04:44:27;;;;;;;8.43;5.32;;;17.90;1.00;;;;;;4991145;28;20226;-79
2023/08/14 04:46:54;;;;;;;10.07;5.50;;;17.80;1.00;;;;;;4997714;28;20211;-79
2023/08/14 04:49:27;;;;;;;9.77;5.82;;;17.80;1.00;;;;;;5004313;28;20192;-79
2023/08/14 04:51:55;;;;;;;7.43;5.10;;;17.80;1.00;;;;;;4995142;28;20579;-79
2023/08/14 04:54:23;;;;;;;7.70;5.47;;;17.90;1.00;;;;;;4996125;28;20564;-79
2023/08/14 04:56:52;;;;;;;9.40;5.53;;;18.00;1.00;;;;;;4997317;28;20204;-79
2023/08/14 04:59:20;;;;;;;8.73;5.20;;;18.10;1.00;;;;;;4997331;28;20200;-79
2023/08/14 05:01:48;;;;;;;10.32;5.18;;;18.20;99.90;;;;;;4988618;28;20223;-79
2023/08/14 05:04:16;;;;;;;8.75;5.18;;;18.10;99.90;;;;;;4973766;28;20224;-80
2023/08/14 05:06:45;;;;;;;8.10;5.57;;;18.10;99.90;;;;;;4980232;28;20205;-80
2023/08/14 05:09:13;;;;;;;7.07;5.07;;;18.00;1.00;;;;;;4998739;28;20199;-79
2023/08/14 05:11:43;;;;;;;9.50;5.60;;;18.10;1.00;;;;;;4992089;28;20212;-80
2023/08/14 05:14:10;;;;;;;11.60;5.72;;;18.10;1.00;;;;;;4986758;28;20212;-80
2023/08/14 05:16:38;;;;;;;10.45;5.97;;;18.10;1.00;;;;;;4989369;28;20212;-80
2023/08/14 05:19:07;;;;;;;10.05;5.72;;;18.10;1.00;;;;;;5012467;28;20207;-78
2023/08/14 05:21:39;;;;;;;8.15;5.53;;;18.00;1.00;;;;;;4971649;28;20224;-79
2023/08/14 05:24:37;;;;;;;;;;;;;;;;;;;;;
2023/08/14 05:27:25;;;;;;;8.05;5.10;;;17.90;1.00;;;;;;4987567;28;20680;-80
2023/08/14 05:29:53;;;;;;;7.25;4.35;;;18.00;1.00;;;;;;4975026;28;20216;-79
2023/08/14 05:32:20;;;;;;;8.82;4.47;;;18.20;1.00;;;;;;5002129;28;20693;-79
2023/08/14 05:34:49;;;;;;;9.85;4.80;;;18.60;99.90;;;;;;5010560;28;20200;-78
2023/08/14 05:37:16;;;;;;;6.50;4.45;;;18.60;70.90;;;;;;5008444;28;20678;-79
2023/08/14 05:39:45;;;;;;;7.53;4.35;;;18.60;99.90;;;;;;5013063;28;20701;-79
2023/08/14 05:42:12;;;;;;;7.75;4.78;;;18.60;99.90;;;;;;4990460;28;20232;-78
2023/08/14 05:44:41;;;;;;;8.18;5.35;;;18.70;1.00;;;;;;5004836;28;20216;-79
2023/08/14 05:47:20;;;;;;;7.20;4.57;;;18.90;37.90;;;;;;4986012;28;20211;-79
2023/08/14 05:49:48;;;;;;;8.90;4.63;;;19.20;1.00;;;;;;5005873;28;20200;-79
2023/08/14 05:52:16;;;;;;;8.35;4.68;;;19.50;1.00;;;;;;4983315;28;20251;-79
2023/08/14 05:54:46;;;;;;;10.48;5.03;;;19.50;99.90;;;;;;5010737;28;20200;-79
2023/08/14 05:57:14;;;;;;;7.32;4.47;;;19.40;1.00;;;;;;4994200;28;20204;-79
2023/08/14 05:59:41;;;;;;;10.73;4.85;;;19.40;99.90;;;;;;5005453;28;20205;-80
2023/08/14 06:02:09;;;;;;;7.45;4.22;;;19.20;1.00;;;;;;4990498;28;20224;-80
2023/08/14 06:04:37;;;;;;;4.90;3.88;;;19.30;1.00;;;;;;4991930;28;20240;-80
2023/08/14 06:07:09;;;;;;;6.43;4.45;;;19.40;99.90;;;;;;4987424;28;20205;-80
2023/08/14 06:09:36;;;;;;;7.47;4.53;;;19.50;99.90;;;;;;5008202;28;20224;-80
2023/08/14 06:12:06;;;;;;;7.82;3.97;;;19.50;99.90;;;;;;4975618;28;20232;-79
2023/08/14 06:14:33;;;;;;;5.65;3.60;;;19.60;9.30;;;;;;4986185;28;20562;-79
2023/08/14 06:17:01;;;;;;;6.22;3.58;;;19.70;1.00;;;;;;4992686;28;20200;-79
2023/08/14 06:19:28;;;;;;;8.05;4.45;;;19.70;1.00;;;;;;4986485;28;20213;-79
2023/08/14 06:21:55;;;;;;;9.23;3.97;;;19.80;99.90;;;;;;4989547;28;20261;-79
2023/08/14 06:24:23;;;;;;;6.88;3.70;;;19.90;99.90;;;;;;4995184;28;20224;-79
2023/08/14 06:26:50;;;;;;;6.22;3.97;;;20.00;17.30;;;;;;4995769;28;20204;-79
2023/08/14 06:29:19;;;;;;;7.95;4.07;;;20.10;99.90;;;;;;4979904;28;20204;-79
2023/08/14 06:31:47;;;;;;;7.80;3.80;;;20.10;99.90;;;;;;5003861;28;20223;-79
2023/08/14 06:34:14;;;;;;;6.88;3.33;;;20.20;1.00;;;;;;4998118;28;20200;-79
2023/08/14 06:36:42;;;;;;;7.75;3.58;;;20.20;19.20;;;;;;4995996;28;20200;-79
2023/08/14 06:39:09;;;;;;;6.97;3.67;;;20.30;1.00;;;;;;4995400;28;20204;-79
2023/08/14 06:41:36;;;;;;;6.78;3.85;;;20.30;99.90;;;;;;4989665;28;20212;-79
2023/08/14 06:44:08;;;;;;;4.57;3.33;;;20.40;38.80;;;;;;4986155;28;20223;-79
2023/08/14 06:46:37;;;;;;;9.93;3.22;;;20.60;1.00;;;;;;4993956;28;20212;-79
2023/08/14 06:49:05;;;;;;;7.55;3.60;;;20.60;1.00;;;;;;5002403;28;20212;-79
2023/08/14 06:51:33;;;;;;;7.03;3.58;;;20.50;1.00;;;;;;4994592;28;20239;-79
2023/08/14 06:54:01;;;;;;;9.25;4.50;;;20.60;99.90;;;;;;4982028;28;20201;-79
2023/08/14 06:56:28;;;;;;;5.22;3.58;;;20.60;1.00;;;;;;4988302;28;20220;-79
2023/08/14 06:58:55;;;;;;;5.60;3.67;;;20.60;1.00;;;;;;4997594;28;20768;-79
2023/08/14 07:01:24;;;;;;;4.93;3.70;;;20.50;1.00;;;;;;4985743;28;20223;-79
2023/08/14 07:03:52;;;;;;;9.52;4.95;;;20.60;99.90;;;;;;5005511;28;20229;-79
2023/08/14 07:06:20;;;;;;;6.55;3.80;;;20.70;1.00;;;;;;4994134;28;20220;-79
2023/08/14 07:08:47;;;;;;;6.28;3.78;;;20.90;1.00;;;;;;4991101;28;20193;-79
2023/08/14 07:11:15;;;;;;;5.70;3.20;;;21.10;1.00;;;;;;4985514;28;20220;-79
2023/08/14 07:13:43;;;;;;;7.72;3.55;;;21.30;1.00;;;;;;4972943;28;20200;-79
2023/08/14 07:16:10;;;;;;;7.75;3.47;;;21.10;1.00;;;;;;4995063;28;20208;-79
2023/08/14 07:18:38;;;;;;;6.97;3.60;;;21.20;95.20;;;;;;4995349;28;20211;-79
2023/08/14 07:21:07;;;;;;;10.70;4.80;;;21.30;1.00;;;;;;4987048;28;20227;-79
2023/08/14 07:23:36;;;;;;;6.43;3.35;;;21.40;99.90;;;;;;4995158;28;20199;-79
2023/08/14 07:26:11;;;;;;;7.28;3.35;;;21.40;1.00;;;;;;4996170;28;20231;-79
2023/08/14 07:28:39;;;;;;;6.53;3.63;;;21.50;1.00;;;;;;4996517;28;20199;-79
2023/08/14 07:31:07;;;;;;;9.27;4.15;;;21.60;1.00;;;;;;4994279;28;20224;-79
2023/08/14 07:33:53;;;;;;;7.57;3.83;;;21.70;1.00;;;;;;5006607;28;20200;-78
2023/08/14 07:36:22;;;;;;;7.60;4.10;;;21.60;1.00;;;;;;4991490;28;20211;-78
2023/08/14 07:38:49;;;;;;;7.10;3.70;;;21.50;1.00;;;;;;4991869;28;20199;-78
2023/08/14 07:41:17;;;;;;;6.07;3.55;;;21.60;99.90;;;;;;4980798;28;20560;-78
2023/08/14 07:43:44;;;;;;;8.05;4.20;;;21.60;1.00;;;;;;4968415;28;20204;-78
2023/08/14 07:46:12;;;;;;;11.30;4.60;;;21.60;1.00;;;;;;5000618;28;20231;-77
2023/08/14 07:48:39;;;;;;;6.20;3.35;;;21.60;99.90;;;;;;4996784;28;20207;-77
2023/08/14 07:51:06;;;;;;;7.35;3.78;;;21.60;99.90;;;;;;4981724;28;20240;-77
2023/08/14 07:53:35;;;;;;;9.55;3.97;;;21.60;1.00;;;;;;4990423;28;20197;-77
2023/08/14 07:56:03;;;;;;;12.20;5.25;;;21.80;99.90;;;;;;5017555;28;20192;-78
2023/08/14 07:58:30;;;;;;;11.90;4.50;;;21.90;99.90;;;;;;4987446;28;20200;-78
2023/08/14 08:00:58;;;;;;;5.78;3.75;;;21.80;1.00;;;;;;4980769;28;20236;-78
2023/08/14 08:03:25;;;;;;;18.75;8.70;;;21.80;13.90;;;;;;4994024;28;20184;-78
2023/08/14 08:05:53;;;;;;;7.88;4.13;;;21.90;99.90;;;;;;4988255;28;20220;-78
2023/08/14 08:08:20;;;;;;;14.05;6.60;;;21.80;1.00;;;;;;4986526;28;20201;-78
2023/08/14 08:10:49;;;;;;;7.95;4.10;;;22.00;97.50;;;;;;4987677;28;20228;-78
2023/08/14 08:13:25;;;;;;;8.80;3.80;;;22.10;1.00;;;;;;4990965;28;20204;-78
2023/08/14 08:15:52;;;;;;;5.38;2.80;;;22.20;99.90;;;;;;4984559;28;20203;-78
2023/08/14 08:18:19;;;;;;;6.75;3.63;;;22.30;43.80;;;;;;4995674;28;20212;-78
2023/08/14 08:20:47;;;;;;;6.32;3.38;;;22.30;99.90;;;;;;5001552;28;20223;-78
2023/08/14 08:23:14;;;;;;;6.75;3.60;;;22.30;99.90;;;;;;4986245;28;20683;-78
2023/08/14 08:25:42;;;;;;;5.55;3.15;;;22.30;99.90;;;;;;4993610;28;20228;-78
2023/08/14 08:28:11;;;;;;;5.93;3.03;;;22.40;1.00;;;;;;4995025;28;20196;-78
2023/08/14 08:30:38;;;;;;;7.18;3.20;;;22.40;1.00;;;;;;4990321;28;20224;-78
2023/08/14 08:33:06;;;;;;;5.18;2.85;;;22.20;99.90;;;;;;4993322;28;20208;-78
2023/08/14 08:35:33;;;;;;;7.72;2.53;;;22.00;99.90;;;;;;4984117;28;20192;-78
2023/08/14 08:38:00;;;;;;;6.57;3.17;;;22.00;49.20;;;;;;4978188;28;20201;-78
2023/08/14 08:40:29;;;;;;;7.90;3.50;;;22.10;99.90;;;;;;5009365;28;20238;-78
2023/08/14 08:42:57;;;;;;;4.70;2.95;;;22.10;1.00;;;;;;4994971;28;20208;-78
2023/08/14 08:45:31;;;;;;;6.45;2.95;;;22.30;4.40;;;;;;4990517;28;20208;-78
2023/08/14 08:48:01;;;;;;;5.05;2.45;;;22.40;1.00;;;;;;4988583;28;20205;-78
2023/08/14 08:50:32;;;;;;;7.28;2.95;;;22.50;99.90;;;;;;4985190;28;20236;-78
2023/08/14 08:53:00;;;;;;;5.15;2.60;;;22.50;99.90;;;;;;4994062;28;20207;-78
2023/08/14 08:55:27;;;;;;;5.13;2.67;;;22.50;60.70;;;;;;4995868;28;20200;-78
2023/08/14 08:57:57;;;;;;;4.63;2.72;;;22.50;99.90;;;;;;4986902;28;20200;-78
2023/08/14 09:00:26;;;;;;;4.90;2.80;;;22.50;99.90;;;;;;4992816;28;20224;-77
2023/08/14 09:02:54;;;;;;;7.65;3.08;;;22.40;99.90;;;;;;4989149;28;20205;-78
2023/08/14 09:05:21;;;;;;;9.27;4.30;;;22.40;99.90;;;;;;4972692;28;20217;-78
2023/08/14 09:08:14;;;;;;;8.75;3.05;;;22.50;99.90;;;;;;4985878;28;20204;-79
2023/08/14 09:10:42;;;;;;;7.97;3.40;;;22.40;1.00;;;;;;4993245;28;20235;-78
2023/08/14 09:13:10;;;;;;;6.05;2.53;;;22.50;1.00;;;;;;4993035;28;20562;-79
2023/08/14 09:15:53;;;;;;;6.35;2.33;;;22.50;1.00;;;;;;4989311;28;20203;-77
2023/08/14 09:18:21;;;;;;;5.13;2.40;;;22.60;1.00;;;;;;4978403;28;20196;-78
2023/08/14 09:20:51;;;;;;;4.70;2.53;;;22.60;1.00;;;;;;5005649;28;20221;-78
2023/08/14 09:23:18;;;;;;;6.75;2.67;;;22.50;1.00;;;;;;4993043;28;20209;-79
2023/08/14 09:25:46;;;;;;;5.85;2.70;;;22.50;1.00;;;;;;5005486;28;20225;-78
2023/08/14 09:28:18;;;;;;;3.88;2.13;;;22.60;1.00;;;;;;4990202;28;20670;-79
2023/08/14 09:30:45;;;;;;;4.88;2.67;;;22.70;1.00;;;;;;4989339;28;20216;-78
2023/08/14 09:33:15;;;;;;;3.90;2.20;;;22.90;1.00;;;;;;4991395;28;20211;-79
2023/08/14 09:35:52;;;;;;;5.65;2.97;;;23.00;1.00;;;;;;4996702;28;20196;-78
2023/08/14 09:38:20;;;;;;;6.13;2.55;;;23.10;1.00;;;;;;4994608;28;20208;-79
2023/08/14 09:40:47;;;;;;;5.90;2.15;;;23.10;1.00;;;;;;4997237;28;20225;-79
2023/08/14 09:43:20;;;;;;;6.43;2.97;;;22.90;1.00;;;;;;4976068;28;20279;-80
2023/08/14 09:45:48;;;;;;;6.03;2.13;;;22.80;1.00;;;;;;4991712;28;20204;-80
2023/08/14 09:48:17;;;;;;;4.20;3.00;;;22.80;1.00;;;;;;4992913;28;20204;-79
2023/08/14 09:50:49;;;;;;;4.13;2.40;;;22.90;1.00;;;;;;4987976;28;20227;-79
2023/08/14 09:53:17;;;;;;;4.38;2.22;;;22.90;1.00;;;;;;4995565;28;20208;-79
2023/08/14 09:55:44;;;;;;;5.72;2.53;;;23.00;1.00;;;;;;4992254;28;20201;-79
2023/08/14 09:58:12;;;;;;;6.05;2.72;;;22.90;99.90;;;;;;4989980;28;20197;-79
2023/08/14 10:00:40;;;;;;;8.77;2.33;;;23.00;99.90;;;;;;4999688;28;20559;-79
2023/08/14 10:03:09;;;;;;;5.85;3.08;;;23.10;99.90;;;;;;5005024;28;20196;-79
2023/08/14 10:05:38;;;;;;;5.13;2.65;;;23.20;99.90;;;;;;4987701;28;20204;-79
2023/08/14 10:08:10;;;;;;;4.40;2.88;;;23.40;99.90;;;;;;4985576;28;20209;-79
2023/08/14 10:10:40;;;;;;;5.38;2.40;;;23.50;99.90;;;;;;4989326;28;20220;-79
2023/08/14 10:13:10;;;;;;;7.88;2.90;;;23.60;99.90;;;;;;4995951;28;20196;-79
2023/08/14 10:15:41;;;;;;;6.82;3.13;;;23.70;99.90;;;;;;4992157;28;20197;-79
2023/08/14 10:18:12;;;;;;;7.85;3.40;;;23.90;99.90;;;;;;4993656;28;20212;-79
2023/08/14 10:20:44;;;;;;;3.35;2.10;;;23.90;99.90;;;;;;5006456;28;20224;-79
2023/08/14 10:23:14;;;;;;;5.10;2.17;;;23.90;99.90;;;;;;5015495;28;20204;-79
2023/08/14 10:25:47;;;;;;;4.15;2.22;;;24.00;99.90;;;;;;5007209;28;20205;-79
2023/08/14 10:28:15;;;;;;;5.70;2.00;;;24.00;99.90;;;;;;4991065;28;20211;-79
2023/08/14 10:30:44;;;;;;;5.20;2.40;;;24.10;99.90;;;;;;5009777;28;20595;-79
2023/08/14 10:33:12;;;;;;;3.00;2.20;;;24.10;99.90;;;;;;4986273;28;20216;-79
2023/08/14 10:35:53;;;;;;;5.60;2.80;;;24.10;99.90;;;;;;4991787;28;20215;-79
2023/08/14 10:38:21;;;;;;;6.63;2.88;;;24.00;99.90;;;;;;4989583;28;20193;-79
2023/08/14 10:40:53;;;;;;;5.07;2.60;;;24.20;99.90;;;;;;4995638;28;20239;-79
2023/08/14 10:43:25;;;;;;;5.95;2.42;;;24.40;99.90;;;;;;4994332;28;20215;-80
2023/08/14 10:45:54;;;;;;;4.75;2.25;;;24.30;99.90;;;;;;4991915;28;20224;-79
2023/08/14 10:48:22;;;;;;;5.15;2.50;;;24.40;99.90;;;;;;4992975;28;20284;-79
2023/08/14 10:50:59;;;;;;;3.33;2.15;;;24.30;99.90;;;;;;4994807;28;20261;-79
2023/08/14 10:53:26;;;;;;;4.30;2.78;;;24.40;99.90;;;;;;4978265;28;20211;-79
2023/08/14 10:55:54;;;;;;;5.32;2.30;;;24.40;99.90;;;;;;4990108;28;20533;-79
2023/08/14 10:58:48;;;;;;;3.70;2.30;;;24.60;99.90;;;;;;4995788;28;20215;-80
2023/08/14 11:01:17;;;;;;;4.15;2.38;;;24.80;99.90;;;;;;4991567;28;20227;-80
2023/08/14 11:04:13;;;;;;;6.05;2.58;;;24.90;99.90;;;;;;4992297;28;20204;-79
2023/08/14 11:07:05;;;;;;;5.47;2.53;;;25.00;61.30;;;;;;4971668;28;20208;-80
2023/08/14 11:09:36;;;;;;;5.93;2.58;;;25.00;7.80;;;;;;4991942;28;20200;-80
2023/08/14 11:12:06;;;;;;;3.45;2.00;;;25.00;1.00;;;;;;4993535;28;20613;-80
2023/08/14 11:14:38;;;;;;;4.55;2.72;;;25.10;1.00;;;;;;4989956;28;20208;-79
2023/08/14 11:17:06;;;;;;;3.88;2.28;;;24.90;1.00;;;;;;4995710;28;20201;-80
2023/08/14 11:19:37;;;;;;;3.38;2.05;;;25.10;38.60;;;;;;4994873;28;20617;-79
2023/08/14 11:22:06;;;;;;;4.20;2.33;;;25.20;1.00;;;;;;4995596;28;20235;-80
2023/08/14 11:24:36;;;;;;;4.78;2.00;;;25.40;1.00;;;;;;4997194;28;20203;-81
2023/08/14 11:27:04;;;;;;;6.57;2.97;;;25.70;1.00;;;;;;4980089;28;20622;-80
2023/08/14 11:29:31;;;;;;;4.15;2.20;;;25.80;1.00;;;;;;4981536;28;20204;-79
2023/08/14 11:31:59;;;;;;;5.13;2.13;;;25.50;1.00;;;;;;4994992;28;20713;-79
2023/08/14 11:34:27;;;;;;;6.78;2.65;;;25.50;1.00;;;;;;4995312;28;20662;-79
2023/08/14 11:36:57;;;;;;;4.28;2.20;;;25.70;1.00;;;;;;4986513;28;20207;-79
2023/08/14 11:39:27;;;;;;;6.10;2.13;;;25.60;1.00;;;;;;4989303;28;20678;-80
2023/08/14 11:41:55;;;;;;;6.18;2.15;;;25.60;1.00;;;;;;4996064;28;20217;-80
2023/08/14 11:44:23;;;;;;;3.20;2.00;;;25.80;1.00;;;;;;4993543;28;20200;-79
2023/08/14 11:46:57;;;;;;;3.60;1.90;;;25.70;1.00;;;;;;4995410;28;20223;-79
2023/08/14 11:49:24;;;;;;;3.75;2.00;;;25.50;1.00;;;;;;4974199;28;20200;-78
2023/08/14 11:51:53;;;;;;;3.85;2.17;;;25.60;1.00;;;;;;4995850;28;20232;-78
2023/08/14 11:54:23;;;;;;;6.32;2.30;;;25.40;1.00;;;;;;4992918;28;20200;-78
2023/08/14 11:56:51;;;;;;;4.15;2.05;;;25.30;1.00;;;;;;4998432;28;20196;-78
2023/08/14 11:59:19;;;;;;;4.35;2.03;;;25.30;1.00;;;;;;4991140;28;20196;-78
2023/08/14 12:01:46;;;;;;;4.15;2.25;;;25.30;1.00;;;;;;4993711;28;20242;-79
2023/08/14 12:04:14;;;;;;;5.43;2.20;;;25.40;1.00;;;;;;4986713;28;20201;-78
2023/08/14 12:06:41;;;;;;;4.60;2.08;;;25.50;1.00;;;;;;4986414;28;20231;-78
2023/08/14 12:09:11;;;;;;;3.60;2.15;;;25.60;1.00;;;;;;4995071;28;20183;-78
2023/08/14 12:11:39;;;;;;;5.95;2.20;;;25.60;1.00;;;;;;4994372;28;20227;-78
2023/08/14 12:14:08;;;;;;;7.28;2.90;;;25.60;1.00;;;;;;5014490;28;20716;-78
2023/08/14 12:16:39;;;;;;;5.53;2.30;;;25.70;1.00;;;;;;4973986;28;20201;-78
2023/08/14 12:19:09;;;;;;;2.47;2.17;;;25.80;1.00;;;;;;4982129;28;20204;-79
2023/08/14 12:21:36;;;;;;;5.15;2.10;;;25.90;1.00;;;;;;4975148;28;20228;-79
2023/08/14 12:24:04;;;;;;;5.90;2.15;;;26.00;1.00;;;;;;4993641;28;20207;-79
2023/08/14 12:26:42;;;;;;;7.28;2.90;;;26.10;1.00;;;;;;4993416;28;20682;-79
2023/08/14 12:29:10;;;;;;;5.25;2.70;;;26.30;1.00;;;;;;5015477;28;20184;-79
2023/08/14 12:31:38;;;;;;;5.80;2.53;;;26.20;1.00;;;;;;4975074;28;20225;-79
2023/08/14 12:34:05;;;;;;;6.93;3.20;;;26.30;1.00;;;;;;4995068;28;20189;-79
2023/08/14 12:36:32;;;;;;;4.18;2.42;;;26.40;1.00;;;;;;4993215;28;20263;-79
2023/08/14 12:39:00;;;;;;;5.55;2.50;;;26.50;1.00;;;;;;4977144;28;20199;-79
2023/08/14 12:41:28;;;;;;;7.45;3.00;;;26.60;1.00;;;;;;4992489;28;20216;-79
2023/08/14 12:43:55;;;;;;;6.15;2.58;;;26.80;1.00;;;;;;4986975;28;20215;-79
2023/08/14 12:46:24;;;;;;;4.28;2.55;;;26.80;1.00;;;;;;5007359;28;20215;-79
2023/08/14 12:48:54;;;;;;;4.13;2.72;;;27.00;1.00;;;;;;5009586;28;20211;-79
2023/08/14 12:51:22;;;;;;;4.88;2.83;;;27.40;1.00;;;;;;4992269;28;20228;-79
2023/08/14 12:53:55;;;;;;;6.75;2.38;;;27.40;1.00;;;;;;5002897;28;20210;-79
2023/08/14 12:56:23;;;;;;;3.72;2.30;;;27.30;1.00;;;;;;4999557;28;20207;-79
2023/08/14 12:59:07;;;;;;;4.30;2.42;;;27.50;1.00;;;;;;4993694;28;20207;-79
2023/08/14 13:01:36;;;;;;;4.13;2.47;;;27.50;1.00;;;;;;4996288;28;20230;-79
2023/08/14 13:04:04;;;;;;;4.70;2.38;;;27.50;1.00;;;;;;4991447;28;20212;-79